createdAt,value
2023-05-25T00:01:02.992Z,97174.94
2023-05-25T00:03:31.250Z,97177.56
2023-05-25T00:05:58.851Z,97169.47
2023-05-25T00:08:25.400Z,97179.78
2023-05-25T00:10:51.895Z,97186.84
2023-05-25T00:13:18.518Z,97185.00
2023-05-25T00:15:45.412Z,97175.88
2023-05-25T00:18:13.092Z,97189.28
2023-05-25T00:20:39.922Z,97186.47
2023-05-25T00:23:06.590Z,97182.72
2023-05-25T00:25:33.023Z,97183.63
2023-05-25T00:27:59.620Z,97184.88
2023-05-25T00:30:26.186Z,97187.28
2023-05-25T00:32:54.062Z,97176.91
2023-05-25T00:35:20.700Z,97145.84
2023-05-25T00:37:47.632Z,97175.19
2023-05-25T00:40:16.457Z,97170.53
2023-05-25T00:42:44.018Z,97172.94
2023-05-25T00:45:11.268Z,97176.47
2023-05-25T00:47:39.771Z,97181.06
2023-05-25T00:50:09.604Z,97168.38
2023-05-25T00:52:36.760Z,97177.84
2023-05-25T00:55:04.223Z,97179.38
2023-05-25T00:57:34.262Z,97185.44
2023-05-25T01:00:02.587Z,97178.56
2023-05-25T01:02:29.599Z,97185.44
2023-05-25T01:05:01.016Z,97169.56
2023-05-25T01:07:30.086Z,97178.66
2023-05-25T01:10:07.020Z,97178.25
2023-05-25T01:12:38.593Z,97168.69
2023-05-25T01:15:05.982Z,97175.53
2023-05-25T01:17:33.206Z,97170.66
2023-05-25T01:20:09.547Z,97174.94
2023-05-25T01:22:41.845Z,97172.56
2023-05-25T01:25:22.742Z,97172.47
2023-05-25T01:27:57.588Z,97144.81
2023-05-25T01:30:26.377Z,97175.63
2023-05-25T01:32:54.458Z,97175.44
2023-05-25T01:35:22.028Z,97164.38
2023-05-25T01:37:49.893Z,97183.34
2023-05-25T01:40:16.437Z,97182.53
2023-05-25T01:42:42.949Z,97187.53
2023-05-25T01:45:11.722Z,97194.97
2023-05-25T01:47:46.922Z,97178.06
2023-05-25T01:50:32.305Z,97196.34
2023-05-25T01:53:03.568Z,97197.81
2023-05-25T01:55:36.777Z,97177.22
2023-05-25T01:58:05.791Z,97186.13
2023-05-25T02:00:33.298Z,97167.75
2023-05-25T02:03:02.480Z,97183.22
2023-05-25T02:05:29.162Z,97157.03
2023-05-25T02:07:55.753Z,97177.69
2023-05-25T02:10:22.375Z,97171.09
2023-05-25T02:12:49.438Z,97142.56
2023-05-25T02:15:16.127Z,97165.81
2023-05-25T02:17:43.324Z,97172.72
2023-05-25T02:20:11.275Z,97172.59
2023-05-25T02:22:38.186Z,97168.03
2023-05-25T02:25:09.015Z,97174.84
2023-05-25T02:27:36.386Z,97171.94
2023-05-25T02:30:03.263Z,97168.38
2023-05-25T02:32:29.872Z,97166.69
2023-05-25T02:34:56.848Z,97166.94
2023-05-25T02:37:23.399Z,97160.88
2023-05-25T02:39:49.965Z,97162.50
2023-05-25T02:42:16.518Z,97168.66
2023-05-25T02:44:48.295Z,97166.59
2023-05-25T02:47:16.569Z,97161.22
2023-05-25T02:49:43.814Z,97163.16
2023-05-25T02:52:10.680Z,97155.16
2023-05-25T02:54:37.483Z,97162.59
2023-05-25T02:57:05.902Z,97163.84
2023-05-25T02:59:32.646Z,97167.28
2023-05-25T03:01:59.152Z,97172.53
2023-05-25T03:04:26.196Z,97168.16
2023-05-25T03:06:53.500Z,97175.16
2023-05-25T03:09:21.542Z,97174.22
2023-05-25T03:11:49.881Z,97176.66
2023-05-25T03:14:19.137Z,97168.28
2023-05-25T03:16:54.166Z,97177.56
2023-05-25T03:19:21.471Z,97183.28
2023-05-25T03:21:48.119Z,97187.59
2023-05-25T03:24:14.673Z,97171.75
2023-05-25T03:26:41.228Z,97183.50
2023-05-25T03:29:08.559Z,97194.00
2023-05-25T03:31:35.311Z,97177.00
2023-05-25T03:34:03.676Z,97167.28
2023-05-25T03:36:32.682Z,97166.94
2023-05-25T03:38:59.585Z,97164.78
2023-05-25T03:41:27.050Z,97202.47
2023-05-25T03:43:53.684Z,97206.03
2023-05-25T03:46:20.413Z,97206.00
2023-05-25T03:48:47.095Z,97208.06
2023-05-25T03:51:13.940Z,97207.13
2023-05-25T03:53:40.376Z,97212.38
2023-05-25T03:56:07.907Z,97212.69
2023-05-25T03:58:36.924Z,97193.31
2023-05-25T04:01:05.293Z,97207.19
2023-05-25T04:03:34.011Z,97189.63
2023-05-25T04:06:02.154Z,97211.34
2023-05-25T04:08:29.281Z,97212.41
2023-05-25T04:10:56.599Z,97210.13
2023-05-25T04:13:23.429Z,97206.78
2023-05-25T04:15:50.817Z,97211.31
2023-05-25T04:18:21.200Z,97184.94
2023-05-25T04:20:48.695Z,97203.31
2023-05-25T04:23:16.953Z,97186.25
2023-05-25T04:25:45.537Z,97199.31
2023-05-25T04:28:12.516Z,97199.66
2023-05-25T04:30:57.111Z,97199.50
2023-05-25T04:33:47.191Z,97201.66
2023-05-25T04:36:34.175Z,97208.06
2023-05-25T04:39:03.648Z,97199.50
2023-05-25T04:41:31.639Z,97206.84
2023-05-25T04:44:09.741Z,97190.19
2023-05-25T04:46:44.656Z,97205.59
2023-05-25T04:49:18.983Z,97193.84
2023-05-25T04:51:48.807Z,97200.69
2023-05-25T04:54:15.832Z,97211.72
2023-05-25T04:56:42.934Z,97207.81
2023-05-25T04:59:09.546Z,97205.94
2023-05-25T05:01:40.824Z,97205.09
2023-05-25T05:04:11.840Z,97223.09
2023-05-25T05:06:39.212Z,97222.69
2023-05-25T05:09:06.536Z,97214.56
2023-05-25T05:11:33.245Z,97217.19
2023-05-25T05:13:59.705Z,97229.41
2023-05-25T05:16:31.662Z,97236.28
2023-05-25T05:18:58.500Z,97234.06
2023-05-25T05:21:25.149Z,97235.34
2023-05-25T05:23:51.813Z,97251.50
2023-05-25T05:26:18.282Z,97240.34
2023-05-25T05:28:45.052Z,97242.44
2023-05-25T05:31:12.468Z,97233.34
2023-05-25T05:33:39.584Z,97206.91
2023-05-25T05:36:06.590Z,97093.16
2023-05-25T05:38:33.407Z,97218.53
2023-05-25T05:41:00.079Z,97246.50
2023-05-25T05:43:27.632Z,97224.41
2023-05-25T05:45:54.131Z,97261.28
2023-05-25T05:48:20.796Z,97238.75
2023-05-25T05:50:47.452Z,97242.38
2023-05-25T05:53:14.470Z,97213.75
2023-05-25T05:55:41.337Z,97252.44
2023-05-25T05:58:08.064Z,97255.88
2023-05-25T06:00:34.643Z,97231.16
2023-05-25T06:03:01.342Z,97263.75
2023-05-25T06:05:29.729Z,97258.00
2023-05-25T06:07:57.424Z,97266.47
2023-05-25T06:10:23.940Z,97249.00
2023-05-25T06:12:51.109Z,97246.09
2023-05-25T06:15:17.897Z,97244.59
2023-05-25T06:17:46.553Z,97237.78
2023-05-25T06:20:15.004Z,97246.97
2023-05-25T06:22:41.906Z,97245.72
2023-05-25T06:25:10.271Z,97260.34
2023-05-25T06:27:37.502Z,97263.13
2023-05-25T06:30:04.321Z,97236.50
2023-05-25T06:32:30.896Z,97228.84
2023-05-25T06:34:57.798Z,97255.56
2023-05-25T06:37:24.237Z,97272.72
2023-05-25T06:39:50.799Z,97233.22
2023-05-25T06:42:18.234Z,97197.91
2023-05-25T06:44:52.527Z,97249.22
2023-05-25T06:47:19.052Z,97251.44
2023-05-25T06:49:46.926Z,97221.47
2023-05-25T06:52:13.328Z,97251.97
2023-05-25T06:54:39.815Z,97255.97
2023-05-25T06:57:06.664Z,97263.97
2023-05-25T06:59:33.239Z,97234.56
2023-05-25T07:02:00.408Z,97204.47
2023-05-25T07:04:28.472Z,97258.41
2023-05-25T07:06:55.027Z,97259.59
2023-05-25T07:09:22.180Z,97274.03
2023-05-25T07:11:48.710Z,97253.94
2023-05-25T07:14:15.633Z,97268.34
2023-05-25T07:16:45.233Z,97252.88
2023-05-25T07:19:12.130Z,97257.03
2023-05-25T07:21:38.694Z,97255.66
2023-05-25T07:24:05.227Z,97270.88
2023-05-25T07:26:33.352Z,97221.41
2023-05-25T07:29:00.235Z,97230.25
2023-05-25T07:31:27.798Z,97101.66
2023-05-25T07:33:55.611Z,97153.47
2023-05-25T07:36:24.810Z,97184.94
2023-05-25T07:38:51.760Z,97118.81
2023-05-25T07:41:18.404Z,97143.03
2023-05-25T07:43:45.666Z,97157.69
2023-05-25T07:46:12.191Z,97146.47
2023-05-25T07:48:38.816Z,97273.56
2023-05-25T07:51:05.495Z,97097.03
2023-05-25T07:53:32.047Z,97224.84
2023-05-25T07:55:58.524Z,97284.13
2023-05-25T07:58:25.109Z,97234.88
2023-05-25T08:00:51.845Z,97216.66
2023-05-25T08:03:19.932Z,97184.09
2023-05-25T08:05:49.237Z,97191.19
2023-05-25T08:08:16.564Z,97189.88
2023-05-25T08:10:44.796Z,97183.69
2023-05-25T08:13:11.608Z,97277.41
2023-05-25T08:15:38.138Z,97261.91
2023-05-25T09:12:48.075Z,97287.66
2023-05-25T09:15:15.363Z,97284.00
2023-05-25T09:17:41.976Z,97282.81
2023-05-25T09:20:11.316Z,97295.19
2023-05-25T09:22:38.391Z,97291.94
2023-05-25T09:25:08.323Z,97280.50
2023-05-25T09:27:37.497Z,97273.34
2023-05-25T09:30:05.429Z,97285.97
2023-05-25T09:32:32.412Z,97278.63
2023-05-25T09:35:12.864Z,97291.94
2023-05-25T09:37:42.300Z,97293.34
2023-05-25T09:40:10.834Z,97299.47
2023-05-25T09:42:38.410Z,97275.94
2023-05-25T09:45:05.909Z,97283.53
2023-05-25T09:47:32.911Z,97292.19
2023-05-25T09:50:00.277Z,97289.66
2023-05-25T09:52:27.303Z,97287.44
2023-05-25T09:54:54.989Z,97299.28
2023-05-25T09:57:21.640Z,97305.84
2023-05-25T09:59:48.467Z,97289.28
2023-05-25T10:02:15.897Z,97304.28
2023-05-25T10:04:42.604Z,97302.13
2023-05-25T10:07:09.737Z,97295.94
2023-05-25T10:09:41.640Z,97303.03
2023-05-25T10:12:09.100Z,97298.53
2023-05-25T10:14:39.151Z,97293.84
2023-05-25T10:17:11.487Z,97304.09
2023-05-25T10:19:50.523Z,97302.63
2023-05-25T10:22:25.241Z,97306.78
2023-05-25T10:25:03.961Z,97309.88
2023-05-25T10:27:38.914Z,97298.16
2023-05-25T10:30:06.214Z,97293.88
2023-05-25T10:32:34.260Z,97290.63
2023-05-25T10:35:02.191Z,97296.38
2023-05-25T10:37:30.183Z,97300.53
2023-05-25T10:39:57.573Z,97294.28
2023-05-25T10:42:24.086Z,97287.38
2023-05-25T10:44:50.656Z,97307.09
2023-05-25T10:47:17.564Z,97276.06
2023-05-25T10:50:01.206Z,97302.03
2023-05-25T10:52:29.626Z,97301.69
2023-05-25T10:55:09.774Z,97293.09
2023-05-25T10:57:36.503Z,97303.16
2023-05-25T11:00:06.568Z,97295.19
2023-05-25T11:02:53.718Z,97294.56
2023-05-25T11:05:26.742Z,97296.38
2023-05-25T11:07:58.208Z,97286.78
2023-05-25T11:10:44.547Z,97288.16
2023-05-25T11:13:39.805Z,97293.78
2023-05-25T11:16:17.961Z,97252.22
2023-05-25T11:18:46.500Z,97295.34
2023-05-25T11:21:15.263Z,97288.28
2023-05-25T11:23:59.333Z,97277.16
2023-05-25T11:26:35.239Z,97278.16
2023-05-25T11:29:27.490Z,97258.34
2023-05-25T11:33:06.580Z,97275.75
2023-05-25T11:39:20.572Z,97276.66
2023-05-25T11:41:52.182Z,97270.41
2023-05-25T11:44:40.834Z,97288.91
2023-05-25T11:47:29.094Z,97238.44
2023-05-25T11:49:59.574Z,97275.81
2023-05-25T11:52:27.833Z,97261.31
2023-05-25T11:55:28.554Z,97266.13
2023-05-25T11:57:57.927Z,97276.84
2023-05-25T12:00:27.196Z,97266.66
2023-05-25T12:02:53.917Z,97240.03
2023-05-25T12:05:20.834Z,97262.75
2023-05-25T12:07:47.490Z,97233.50
2023-05-25T12:10:18.995Z,97259.81
2023-05-25T12:12:50.345Z,97258.56
2023-05-25T12:15:22.269Z,97229.31
2023-05-25T12:17:49.657Z,97245.53
2023-05-25T12:20:20.384Z,97258.56
2023-05-25T12:22:47.698Z,97260.75
2023-05-25T12:25:24.449Z,97258.19
2023-05-25T12:28:18.387Z,97265.00
2023-05-25T12:30:45.823Z,97251.88
2023-05-25T12:33:14.550Z,97240.59
2023-05-25T12:35:46.793Z,97253.25
2023-05-25T12:38:15.682Z,97252.66
2023-05-25T12:40:42.641Z,97240.47
2023-05-25T12:43:12.299Z,97243.72
2023-05-25T12:45:44.385Z,97232.09
2023-05-25T12:48:12.923Z,97246.44
2023-05-25T12:50:39.597Z,97241.88
2023-05-25T12:53:07.159Z,97197.03
2023-05-25T12:55:36.455Z,97242.38
2023-05-25T12:58:07.480Z,97239.72
2023-05-25T13:00:36.420Z,97220.00
2023-05-25T13:03:04.225Z,97248.41
2023-05-25T13:05:36.944Z,97243.78
2023-05-25T13:08:05.403Z,97248.09
2023-05-25T13:10:33.145Z,97215.13
2023-05-25T13:13:00.579Z,97245.88
2023-05-25T13:15:27.592Z,97239.69
2023-05-25T13:17:54.957Z,97225.56
2023-05-25T13:20:24.933Z,97233.94
2023-05-25T13:22:53.370Z,97215.25
2023-05-25T13:25:22.226Z,97232.91
2023-05-25T13:27:50.862Z,97243.50
2023-05-25T13:30:21.866Z,97217.91
2023-05-25T13:32:51.139Z,97223.00
2023-05-25T13:35:23.516Z,97226.16
2023-05-25T13:37:51.026Z,97225.94
2023-05-25T13:40:17.855Z,97226.97
2023-05-25T13:42:44.547Z,97225.56
2023-05-25T13:45:11.257Z,97214.94
2023-05-25T13:47:37.907Z,97224.28
2023-05-25T13:50:05.128Z,97223.78
2023-05-25T13:52:31.793Z,97224.88
2023-05-25T13:54:58.494Z,97219.19
2023-05-25T13:57:25.070Z,97211.47
2023-05-25T13:59:51.606Z,97218.22
2023-05-25T14:02:18.404Z,97221.56
2023-05-25T14:04:45.012Z,97218.50
2023-05-25T14:07:12.398Z,97220.78
2023-05-25T14:09:39.023Z,97192.38
2023-05-25T14:12:06.887Z,97212.09
2023-05-25T14:14:33.777Z,97189.06
2023-05-25T14:17:01.300Z,97215.94
2023-05-25T14:19:28.646Z,97214.63
2023-05-25T14:24:24.986Z,97208.16
2023-05-25T14:26:51.585Z,97212.84
2023-05-25T14:29:18.165Z,97210.03
2023-05-25T14:31:44.882Z,97208.44
2023-05-25T14:34:11.454Z,97207.50
2023-05-25T14:36:38.240Z,97196.16
2023-05-25T14:39:04.900Z,97202.72
2023-05-25T14:41:31.448Z,97208.63
2023-05-25T14:43:58.116Z,97206.41
2023-05-25T14:46:24.775Z,97202.72
2023-05-25T14:48:51.512Z,97211.19
2023-05-25T14:51:18.119Z,97197.69
2023-05-25T14:53:45.139Z,97207.69
2023-05-25T14:56:11.689Z,97183.53
2023-05-25T14:58:38.278Z,97210.44
2023-05-25T15:01:05.069Z,97216.91
2023-05-25T15:03:32.609Z,97203.81
2023-05-25T15:05:59.322Z,97212.16
2023-05-25T15:08:26.049Z,97197.72
2023-05-25T15:10:52.793Z,97203.50
2023-05-25T15:13:22.455Z,97207.19
2023-05-25T15:15:51.973Z,97203.88
2023-05-25T15:18:18.860Z,97213.63
2023-05-25T15:20:45.756Z,97207.78
2023-05-25T15:23:12.555Z,97205.63
2023-05-25T15:25:39.169Z,97198.03
2023-05-25T15:28:05.872Z,97200.72
2023-05-25T15:30:34.318Z,97199.56
2023-05-25T15:33:02.639Z,97205.53
2023-05-25T15:35:32.522Z,97199.66
2023-05-25T15:38:00.395Z,97196.16
2023-05-25T15:40:27.470Z,97192.69
2023-05-25T15:42:54.211Z,97190.13
2023-05-25T15:45:20.940Z,97193.81
2023-05-25T15:47:47.626Z,97193.63
2023-05-25T15:50:14.432Z,97197.06
2023-05-25T15:52:41.929Z,97194.44
2023-05-25T15:55:09.238Z,97193.31
2023-05-25T15:57:35.845Z,97199.31
2023-05-25T16:00:05.591Z,97174.59
2023-05-25T16:02:32.672Z,97194.59
2023-05-25T16:04:59.358Z,97193.78
2023-05-25T16:07:25.927Z,97186.28
2023-05-25T16:09:52.463Z,97197.81
2023-05-25T16:12:19.145Z,97197.25
2023-05-25T16:14:45.718Z,97193.13
2023-05-25T16:17:12.524Z,97178.59
2023-05-25T16:19:39.106Z,97199.97
2023-05-25T16:22:05.734Z,97198.22
2023-05-25T16:24:32.390Z,97190.38
2023-05-25T16:26:58.976Z,97176.91
2023-05-25T16:29:25.729Z,97204.97
2023-05-25T16:31:54.729Z,97185.75
2023-05-25T16:34:21.991Z,97202.75
2023-05-25T16:36:48.670Z,97194.75
2023-05-25T16:39:15.437Z,97194.78
2023-05-25T16:41:42.162Z,97194.47
2023-05-25T16:44:10.918Z,97193.28
2023-05-25T16:46:38.149Z,97194.88
2023-05-25T16:49:05.311Z,97193.16
2023-05-25T16:51:31.853Z,97198.91
2023-05-25T16:53:58.350Z,97189.84
2023-05-25T16:56:24.905Z,97188.94
2023-05-25T16:58:51.864Z,97194.22
2023-05-25T17:01:18.524Z,97196.16
2023-05-25T17:03:45.225Z,97189.66
2023-05-25T17:06:11.926Z,97186.44
2023-05-25T17:08:38.490Z,97200.88
2023-05-25T17:11:05.141Z,97167.84
2023-05-25T17:13:31.726Z,97196.13
2023-05-25T17:15:58.472Z,97173.13
2023-05-25T17:18:26.783Z,97166.38
2023-05-25T17:20:53.730Z,97175.06
2023-05-25T17:23:20.845Z,97197.59
2023-05-25T17:25:47.666Z,97194.50
2023-05-25T17:28:14.303Z,97198.84
2023-05-25T17:30:40.886Z,97195.00
2023-05-25T17:33:07.497Z,97191.28
2023-05-25T17:35:34.063Z,97142.38
2023-05-25T17:38:00.568Z,97199.75
2023-05-25T17:40:27.270Z,97196.06
2023-05-25T17:42:53.697Z,97197.84
2023-05-25T17:45:20.704Z,97151.91
2023-05-25T17:47:47.247Z,97160.88
2023-05-25T17:50:13.831Z,97200.91
2023-05-25T17:52:40.269Z,97203.56
2023-05-25T17:55:07.299Z,97165.94
2023-05-25T17:57:33.887Z,97178.59
2023-05-25T18:00:00.552Z,97164.72
2023-05-25T18:02:28.943Z,97095.56
2023-05-25T18:04:55.912Z,97179.91
2023-05-25T18:07:22.497Z,97185.47
2023-05-25T18:09:49.049Z,97170.28
2023-05-25T18:12:15.481Z,97215.00
2023-05-25T18:14:41.994Z,97187.44
2023-05-25T18:17:08.867Z,97212.75
2023-05-25T18:19:35.565Z,97202.16
2023-05-25T18:22:02.076Z,97217.97
2023-05-25T18:24:28.512Z,97220.91
2023-05-25T18:26:55.027Z,97222.22
2023-05-25T18:29:21.624Z,97229.88
2023-05-25T18:31:48.882Z,97196.03
2023-05-25T18:34:16.006Z,97206.56
2023-05-25T18:36:42.504Z,97232.75
2023-05-25T18:39:09.049Z,97243.19
2023-05-25T18:41:35.692Z,97228.56
2023-05-25T18:44:02.217Z,97236.13
2023-05-25T18:46:29.346Z,97236.81
2023-05-25T18:48:56.100Z,97246.53
2023-05-25T18:51:25.637Z,97242.69
2023-05-25T18:53:52.389Z,97242.56
2023-05-25T18:56:19.127Z,97230.91
2023-05-25T18:58:46.041Z,97224.88
2023-05-25T19:01:12.636Z,97224.44
2023-05-25T19:03:39.303Z,97202.44
2023-05-25T19:06:06.112Z,97194.53
2023-05-25T19:08:32.658Z,97190.84
2023-05-25T19:10:59.581Z,97229.84
2023-05-25T19:13:26.090Z,97246.88
2023-05-25T19:15:52.619Z,97256.94
2023-05-25T19:18:19.251Z,97254.09
2023-05-25T19:20:46.210Z,97230.78
2023-05-25T19:23:12.788Z,97266.66
2023-05-25T19:25:39.233Z,97268.47
2023-05-25T19:28:05.898Z,97245.94
2023-05-25T19:30:32.443Z,97270.91
2023-05-25T19:32:58.957Z,97267.97
2023-05-25T19:35:25.712Z,97233.75
2023-05-25T19:37:52.299Z,97176.69
2023-05-25T19:40:19.287Z,97156.03
2023-05-25T19:42:45.925Z,97107.13
2023-05-25T19:45:13.280Z,97191.53
2023-05-25T19:47:51.030Z,97251.44
2023-05-25T19:50:18.031Z,97200.50
2023-05-25T19:52:44.614Z,97177.06
2023-05-25T19:55:11.272Z,97287.00
2023-05-25T19:57:38.411Z,97290.69
2023-05-25T20:00:09.191Z,97277.94
2023-05-25T20:02:41.112Z,97263.28
2023-05-25T20:05:09.550Z,97283.69
2023-05-25T20:07:36.463Z,97299.78
2023-05-25T20:10:04.276Z,97302.19
2023-05-25T20:12:30.794Z,97301.88
2023-05-25T20:14:57.212Z,97298.94
2023-05-25T20:17:23.753Z,97304.22
2023-05-25T20:19:50.196Z,97309.53
2023-05-25T20:22:16.701Z,97282.75
2023-05-25T20:24:43.121Z,97314.72
2023-05-25T20:27:09.783Z,97304.44
2023-05-25T20:29:37.259Z,97311.81
2023-05-25T20:32:04.010Z,97298.31
2023-05-25T20:34:30.715Z,97319.16
2023-05-25T20:36:57.118Z,97332.72
2023-05-25T20:39:23.640Z,97312.59
2023-05-25T20:41:50.074Z,97339.31
2023-05-25T20:44:16.650Z,97319.25
2023-05-25T20:46:43.393Z,97334.59
2023-05-25T20:49:10.034Z,97308.94
2023-05-25T20:51:36.599Z,97330.63
2023-05-25T20:54:03.034Z,97343.28
2023-05-25T20:56:29.704Z,97321.13
2023-05-25T20:58:57.401Z,97315.28
2023-05-25T21:01:23.973Z,97330.13
2023-05-25T21:03:50.842Z,97335.66
2023-05-25T21:06:17.439Z,97325.53
2023-05-25T21:08:44.099Z,97355.63
2023-05-25T21:11:10.894Z,97359.63
2023-05-25T21:13:37.476Z,97354.38
2023-05-25T21:16:04.120Z,97355.69
2023-05-25T21:18:30.699Z,97361.53
2023-05-25T21:20:57.241Z,97361.19
2023-05-25T21:23:23.689Z,97359.09
2023-05-25T21:25:50.165Z,97359.84
2023-05-25T21:28:16.761Z,97363.78
2023-05-25T21:30:43.325Z,97363.09
2023-05-25T21:33:09.746Z,97364.78
2023-05-25T21:35:36.321Z,97341.06
2023-05-25T21:38:02.781Z,97368.53
2023-05-25T21:40:29.299Z,97346.19
2023-05-25T21:42:55.813Z,97367.84
2023-05-25T21:45:22.396Z,97371.22
2023-05-25T21:47:48.928Z,97370.19
2023-05-25T21:50:15.760Z,97369.13
2023-05-25T21:52:42.262Z,97345.03
2023-05-25T21:55:09.104Z,97369.78
2023-05-25T21:57:36.375Z,97364.16
2023-05-25T22:00:05.023Z,97377.75
2023-05-25T22:17:39.728Z,97365.94
2023-05-25T22:20:08.429Z,97367.19
2023-05-25T22:22:35.566Z,97371.81
2023-05-25T22:25:02.102Z,97377.69
2023-05-25T22:27:28.593Z,97373.97
2023-05-25T22:29:55.244Z,97377.25
2023-05-25T22:32:21.843Z,97377.59
2023-05-25T22:34:48.337Z,97379.66
2023-05-25T22:37:16.230Z,97379.66
2023-05-25T22:39:42.909Z,97361.47
2023-05-25T22:42:09.500Z,97381.69
2023-05-25T22:44:38.947Z,97382.53
2023-05-25T22:47:06.593Z,97382.78
2023-05-25T22:49:41.274Z,97382.53
2023-05-25T22:52:11.318Z,97389.56
2023-05-25T22:54:37.923Z,97392.50
2023-05-25T22:57:04.453Z,97385.31
2023-05-25T22:59:31.029Z,97384.09
2023-05-25T23:01:57.471Z,97381.88
2023-05-25T23:04:24.041Z,97388.47
2023-05-25T23:06:50.511Z,97386.16
2023-05-25T23:09:17.071Z,97391.72
2023-05-25T23:11:43.563Z,97396.13
2023-05-25T23:14:11.708Z,97398.81
2023-05-25T23:16:38.394Z,97393.97
2023-05-25T23:19:05.129Z,97402.47
2023-05-25T23:21:33.545Z,97395.03
2023-05-25T23:24:00.162Z,97372.34
2023-05-25T23:26:26.966Z,97388.31
2023-05-25T23:28:53.631Z,97395.41
2023-05-25T23:31:20.430Z,97398.91
2023-05-25T23:33:46.972Z,97390.88
2023-05-25T23:36:14.062Z,97394.22
2023-05-25T23:38:41.123Z,97389.28
2023-05-25T23:41:08.243Z,97395.34
2023-05-25T23:43:34.772Z,97400.78
2023-05-25T23:46:01.346Z,97385.59
2023-05-25T23:48:27.927Z,97382.31
2023-05-25T23:50:54.638Z,97387.41
2023-05-25T23:53:21.248Z,97397.38
2023-05-25T23:55:47.821Z,97398.38
2023-05-25T23:58:14.438Z,97403.13
